createdAt,value
2023-05-05T00:00:08.609Z,0.00
2023-05-05T00:01:08.704Z,0.00
2023-05-05T00:02:08.908Z,0.00
2023-05-05T00:03:09.095Z,0.00
2023-05-05T00:04:09.230Z,0.00
2023-05-05T00:05:09.415Z,0.00
2023-05-05T00:06:09.577Z,0.00
2023-05-05T00:07:09.729Z,0.00
2023-05-05T00:08:09.896Z,0.00
2023-05-05T00:09:10.072Z,0.00
2023-05-05T00:10:10.345Z,0.00
2023-05-05T00:11:10.419Z,0.00
2023-05-05T00:12:10.591Z,0.00
2023-05-05T00:13:10.829Z,0.00
2023-05-05T00:14:10.915Z,0.00
2023-05-05T00:15:11.075Z,0.00
2023-05-05T00:16:11.263Z,0.00
2023-05-05T00:17:11.506Z,0.00
2023-05-05T00:18:11.591Z,0.00
2023-05-05T00:19:11.789Z,0.00
2023-05-05T00:20:11.945Z,0.00
2023-05-05T00:21:12.094Z,0.00
2023-05-05T00:22:12.270Z,0.00
2023-05-05T00:23:12.412Z,0.00
2023-05-05T00:24:12.617Z,0.00
2023-05-05T00:25:12.792Z,0.00
2023-05-05T00:26:12.962Z,0.00
2023-05-05T00:27:13.140Z,0.00
2023-05-05T00:28:13.313Z,0.00
2023-05-05T00:29:13.497Z,0.00
2023-05-05T00:30:13.661Z,0.00
2023-05-05T00:31:13.882Z,0.00
2023-05-05T00:32:14.042Z,0.00
2023-05-05T00:33:14.189Z,0.00
2023-05-05T00:34:14.371Z,0.00
2023-05-05T00:35:14.551Z,0.00
2023-05-05T00:36:14.739Z,0.00
2023-05-05T00:37:14.899Z,0.00
2023-05-05T00:38:15.094Z,0.00
2023-05-05T00:39:15.278Z,0.00
2023-05-05T00:40:15.414Z,0.00
2023-05-05T00:41:15.576Z,0.00
2023-05-05T00:42:15.753Z,0.00
2023-05-05T00:43:15.932Z,0.00
2023-05-05T00:44:16.099Z,0.00
2023-05-05T00:45:16.298Z,0.00
2023-05-05T00:46:16.457Z,0.00
2023-05-05T00:47:16.736Z,0.00
2023-05-05T00:48:16.831Z,0.00
2023-05-05T00:49:17.025Z,0.00
2023-05-05T00:50:17.195Z,0.00
2023-05-05T00:51:17.348Z,0.00
2023-05-05T00:52:17.560Z,0.00
2023-05-05T00:53:17.686Z,0.00
2023-05-05T00:54:17.860Z,0.00
2023-05-05T00:55:18.046Z,0.00
2023-05-05T00:56:18.208Z,0.00
2023-05-05T00:57:18.381Z,0.00
2023-05-05T00:58:18.555Z,0.00
2023-05-05T00:59:18.727Z,0.00
2023-05-05T01:00:18.908Z,0.00
2023-05-05T01:01:19.121Z,0.00
2023-05-05T01:02:19.260Z,0.00
2023-05-05T01:03:19.476Z,0.00
2023-05-05T01:04:19.624Z,0.00
2023-05-05T01:05:19.758Z,0.00
2023-05-05T01:06:19.942Z,0.00
2023-05-05T01:07:20.107Z,0.00
2023-05-05T01:08:20.290Z,0.00
2023-05-05T01:09:20.480Z,0.00
2023-05-05T01:10:21.064Z,0.00
2023-05-05T01:11:20.851Z,0.00
2023-05-05T01:12:21.003Z,0.00
2023-05-05T01:13:21.176Z,0.00
2023-05-05T01:14:21.354Z,0.00
2023-05-05T01:15:21.557Z,0.00
2023-05-05T01:16:21.815Z,0.00
2023-05-05T01:17:21.891Z,0.00
2023-05-05T01:18:22.051Z,0.00
2023-05-05T01:19:22.212Z,0.00
2023-05-05T01:20:22.387Z,0.00
2023-05-05T01:21:22.561Z,0.00
2023-05-05T01:22:22.741Z,0.00
2023-05-05T01:23:22.912Z,0.00
2023-05-05T01:24:23.115Z,0.00
2023-05-05T01:25:23.254Z,0.00
2023-05-05T01:26:23.425Z,0.00
2023-05-05T01:27:23.601Z,0.00
2023-05-05T01:28:23.764Z,0.00
2023-05-05T01:29:23.932Z,0.00
2023-05-05T01:30:24.125Z,0.00
2023-05-05T01:31:24.274Z,0.00
2023-05-05T01:32:24.437Z,0.00
2023-05-05T01:33:24.589Z,0.00
2023-05-05T01:34:24.758Z,0.00
2023-05-05T01:35:24.952Z,0.00
2023-05-05T01:36:25.126Z,0.00
2023-05-05T01:37:25.309Z,0.00
2023-05-05T01:38:25.473Z,0.00
2023-05-05T01:39:25.650Z,0.00
2023-05-05T01:40:25.839Z,0.00
2023-05-05T01:41:26.010Z,0.00
2023-05-05T01:42:26.199Z,0.00
2023-05-05T01:43:26.390Z,0.00
2023-05-05T01:44:27.065Z,0.00
2023-05-05T01:45:26.751Z,0.00
2023-05-05T01:46:26.907Z,0.00
2023-05-05T01:47:27.130Z,0.00
2023-05-05T01:48:27.256Z,0.00
2023-05-05T01:49:27.418Z,0.00
2023-05-05T01:50:27.606Z,0.00
2023-05-05T01:51:27.776Z,0.00
2023-05-05T01:52:27.961Z,0.00
2023-05-05T01:53:28.132Z,0.00
2023-05-05T01:54:28.295Z,0.00
2023-05-05T01:55:28.469Z,0.00
2023-05-05T01:56:28.640Z,0.00
2023-05-05T01:57:28.864Z,0.00
2023-05-05T01:58:29.039Z,0.00
2023-05-05T01:59:29.153Z,0.00
2023-05-05T02:00:29.333Z,0.00
2023-05-05T02:01:29.535Z,0.00
2023-05-05T02:02:29.811Z,0.00
2023-05-05T02:03:29.912Z,0.00
2023-05-05T02:04:30.054Z,0.00
2023-05-05T02:05:30.235Z,0.00
2023-05-05T02:06:30.442Z,0.00
2023-05-05T02:07:30.610Z,0.00
2023-05-05T02:08:30.774Z,0.00
2023-05-05T02:09:30.930Z,0.00
2023-05-05T02:10:31.115Z,0.00
2023-05-05T02:11:31.307Z,0.00
2023-05-05T02:12:31.626Z,0.00
2023-05-05T02:13:31.702Z,0.00
2023-05-05T02:14:31.820Z,0.00
2023-05-05T02:15:32.024Z,0.00
2023-05-05T02:16:32.187Z,0.00
2023-05-05T02:17:32.358Z,0.00
2023-05-05T02:18:32.539Z,0.00
2023-05-05T02:19:32.717Z,0.00
2023-05-05T02:20:32.953Z,0.00
2023-05-05T02:21:33.089Z,0.00
2023-05-05T02:22:33.273Z,0.00
2023-05-05T02:23:33.426Z,0.00
2023-05-05T02:24:33.602Z,0.00
2023-05-05T02:25:33.774Z,0.00
2023-05-05T02:26:33.959Z,0.00
2023-05-05T02:27:34.119Z,0.00
2023-05-05T02:28:34.297Z,0.00
2023-05-05T02:29:34.468Z,0.00
2023-05-05T02:30:34.662Z,0.00
2023-05-05T02:31:34.804Z,0.00
2023-05-05T02:32:35.003Z,0.00
2023-05-05T02:33:35.162Z,0.00
2023-05-05T02:34:35.333Z,0.00
2023-05-05T02:35:35.550Z,0.00
2023-05-05T02:36:35.678Z,0.00
2023-05-05T02:37:35.853Z,0.00
2023-05-05T02:38:36.015Z,0.00
2023-05-05T02:39:36.205Z,0.00
2023-05-05T02:40:36.380Z,0.00
2023-05-05T02:41:36.573Z,0.00
2023-05-05T02:42:36.742Z,0.00
2023-05-05T02:43:36.908Z,0.00
2023-05-05T02:44:37.094Z,0.00
2023-05-05T02:45:37.260Z,0.00
2023-05-05T02:46:37.469Z,0.00
2023-05-05T02:47:37.701Z,0.00
2023-05-05T02:48:37.783Z,0.00
2023-05-05T02:49:37.993Z,0.00
2023-05-05T02:50:38.133Z,0.00
2023-05-05T02:51:38.303Z,0.00
2023-05-05T02:52:38.502Z,0.00
2023-05-05T02:53:38.662Z,0.00
2023-05-05T02:54:38.847Z,0.00
2023-05-05T02:55:39.132Z,0.00
2023-05-05T02:56:39.225Z,0.00
2023-05-05T02:57:39.397Z,0.00
2023-05-05T02:58:39.584Z,0.00
2023-05-05T02:59:39.756Z,0.00
2023-05-05T03:00:39.937Z,0.00
2023-05-05T03:01:40.160Z,0.00
2023-05-05T03:02:40.501Z,0.00
2023-05-05T03:03:40.565Z,0.00
2023-05-05T03:04:40.694Z,0.00
2023-05-05T03:05:40.874Z,0.00
2023-05-05T03:06:41.054Z,0.00
2023-05-05T03:07:41.219Z,0.00
2023-05-05T03:08:41.402Z,0.00
2023-05-05T03:09:41.560Z,0.00
2023-05-05T03:10:41.730Z,0.00
2023-05-05T03:11:41.901Z,0.00
2023-05-05T03:12:42.139Z,0.00
2023-05-05T03:13:42.249Z,0.00
2023-05-05T03:14:42.441Z,0.00
2023-05-05T03:15:42.603Z,0.00
2023-05-05T03:16:42.841Z,0.00
2023-05-05T03:17:43.086Z,0.00
2023-05-05T03:18:43.150Z,0.00
2023-05-05T03:19:43.297Z,0.00
2023-05-05T03:20:43.498Z,0.00
2023-05-05T03:21:43.662Z,5.62
2023-05-05T03:22:43.840Z,5.62
2023-05-05T03:23:44.037Z,5.62
2023-05-05T03:24:44.182Z,5.62
2023-05-05T03:25:44.353Z,5.62
2023-05-05T03:26:44.549Z,5.62
2023-05-05T03:27:44.688Z,5.62
2023-05-05T03:28:44.858Z,5.62
2023-05-05T03:29:45.030Z,5.62
2023-05-05T03:30:45.199Z,11.25
2023-05-05T03:31:45.453Z,11.25
2023-05-05T03:32:45.597Z,11.25
2023-05-05T03:33:45.734Z,11.25
2023-05-05T03:34:45.912Z,11.25
2023-05-05T03:35:46.109Z,11.25
2023-05-05T03:36:46.290Z,16.88
2023-05-05T03:37:46.417Z,16.88
2023-05-05T03:38:46.600Z,16.88
2023-05-05T03:39:46.760Z,16.88
2023-05-05T03:40:46.966Z,16.88
2023-05-05T03:41:47.110Z,22.50
2023-05-05T03:42:47.286Z,22.50
2023-05-05T03:43:47.461Z,22.50
2023-05-05T03:44:47.677Z,22.50
2023-05-05T03:45:47.835Z,28.12
2023-05-05T03:46:47.993Z,28.12
2023-05-05T03:47:48.259Z,28.12
2023-05-05T03:48:48.363Z,28.12
2023-05-05T03:49:48.561Z,33.75
2023-05-05T03:50:48.729Z,33.75
2023-05-05T03:51:48.894Z,33.75
2023-05-05T03:52:49.064Z,33.75
2023-05-05T03:53:49.216Z,39.38
2023-05-05T03:54:49.407Z,39.38
2023-05-05T03:55:49.564Z,39.38
2023-05-05T03:56:49.755Z,45.00
2023-05-05T03:57:49.900Z,45.00
2023-05-05T03:58:50.129Z,50.62
2023-05-05T03:59:50.280Z,50.62
2023-05-05T04:00:50.441Z,50.62
2023-05-05T04:01:50.586Z,56.25
2023-05-05T04:02:50.863Z,56.25
2023-05-05T04:03:51.056Z,61.88
2023-05-05T04:04:51.132Z,61.88
2023-05-05T04:05:51.307Z,67.50
2023-05-05T04:06:51.481Z,73.12
2023-05-05T04:07:51.652Z,73.12
2023-05-05T04:08:51.838Z,84.38
2023-05-05T04:09:52.028Z,90.00
2023-05-05T04:10:52.218Z,90.00
2023-05-05T04:11:52.365Z,95.62
2023-05-05T04:12:52.679Z,106.88
2023-05-05T04:13:52.729Z,129.38
2023-05-05T04:14:52.911Z,135.00
2023-05-05T04:15:53.088Z,146.25
2023-05-05T04:16:53.241Z,140.62
2023-05-05T04:17:53.446Z,140.62
2023-05-05T04:18:53.579Z,146.25
2023-05-05T04:19:53.770Z,140.62
2023-05-05T04:20:53.957Z,135.00
2023-05-05T04:21:54.129Z,135.00
2023-05-05T04:22:54.325Z,129.38
2023-05-05T04:23:54.483Z,135.00
2023-05-05T04:24:54.712Z,140.62
2023-05-05T04:25:54.839Z,146.25
2023-05-05T04:26:55.032Z,151.88
2023-05-05T04:27:55.198Z,151.88
2023-05-05T04:28:55.376Z,157.50
2023-05-05T04:29:55.538Z,157.50
2023-05-05T04:30:55.798Z,174.38
2023-05-05T04:31:55.901Z,174.38
2023-05-05T04:32:56.076Z,163.12
2023-05-05T04:33:56.250Z,157.50
2023-05-05T04:34:56.404Z,174.38
2023-05-05T04:35:56.608Z,202.50
2023-05-05T04:36:56.791Z,236.25
2023-05-05T04:37:56.928Z,258.75
2023-05-05T04:38:57.161Z,275.62
2023-05-05T04:39:57.301Z,264.38
2023-05-05T04:40:57.480Z,253.12
2023-05-05T04:41:57.641Z,315.00
2023-05-05T04:42:57.784Z,275.62
2023-05-05T04:43:57.962Z,241.88
2023-05-05T04:44:58.164Z,225.00
2023-05-05T04:45:58.356Z,225.00
2023-05-05T04:46:58.520Z,219.38
2023-05-05T04:47:58.709Z,219.38
2023-05-05T04:48:58.839Z,225.00
2023-05-05T04:49:59.006Z,230.62
2023-05-05T04:50:59.158Z,241.88
2023-05-05T04:51:59.319Z,247.50
2023-05-05T04:52:59.499Z,258.75
2023-05-05T04:53:59.728Z,275.62
2023-05-05T04:54:59.933Z,270.00
2023-05-05T04:56:00.099Z,253.12
2023-05-05T04:57:00.219Z,241.88
2023-05-05T04:58:00.411Z,230.62
2023-05-05T04:59:00.601Z,236.25
2023-05-05T05:00:00.786Z,236.25
2023-05-05T05:01:00.933Z,258.75
2023-05-05T05:02:01.144Z,292.50
2023-05-05T05:03:01.312Z,343.12
2023-05-05T05:04:01.569Z,331.88
2023-05-05T05:05:01.632Z,298.12
2023-05-05T05:06:01.820Z,286.88
2023-05-05T05:07:01.999Z,281.25
2023-05-05T05:08:02.177Z,275.62
2023-05-05T05:09:02.375Z,275.62
2023-05-05T05:10:02.566Z,292.50
2023-05-05T05:11:02.713Z,315.00
2023-05-05T05:12:02.910Z,348.75
2023-05-05T05:13:03.097Z,410.62
2023-05-05T05:14:03.283Z,466.88
2023-05-05T05:15:03.460Z,489.38
2023-05-05T05:16:03.718Z,506.25
2023-05-05T05:17:03.794Z,511.88
2023-05-05T05:18:04.009Z,483.75
2023-05-05T05:19:04.165Z,478.12
2023-05-05T05:20:04.324Z,495.00
2023-05-05T05:21:04.494Z,371.25
2023-05-05T05:22:04.678Z,646.88
2023-05-05T05:23:04.866Z,731.25
2023-05-05T05:24:05.032Z,714.38
2023-05-05T05:25:05.282Z,731.25
2023-05-05T05:26:05.359Z,630.00
2023-05-05T05:27:06.433Z,776.25
2023-05-05T05:28:09.466Z,843.75
2023-05-05T05:29:06.916Z,770.62
2023-05-05T05:30:06.371Z,804.38
2023-05-05T05:31:06.255Z,888.75
2023-05-05T05:32:06.507Z,804.38
2023-05-05T05:33:06.643Z,601.88
2023-05-05T05:34:06.792Z,838.12
2023-05-05T05:35:06.935Z,922.50
2023-05-05T05:36:07.104Z,911.25
2023-05-05T05:37:07.274Z,945.00
2023-05-05T05:38:07.444Z,945.00
2023-05-05T05:39:07.624Z,945.00
2023-05-05T05:40:08.016Z,961.88
2023-05-05T05:41:07.960Z,945.00
2023-05-05T05:42:08.158Z,911.25
2023-05-05T05:43:08.303Z,843.75
2023-05-05T05:44:08.463Z,815.62
2023-05-05T05:45:08.641Z,810.00
2023-05-05T05:46:09.433Z,815.62
2023-05-05T05:47:08.999Z,838.12
2023-05-05T05:48:09.198Z,877.50
2023-05-05T05:49:09.323Z,928.12
2023-05-05T05:50:09.681Z,990.00
2023-05-05T05:51:09.691Z,1051.88
2023-05-05T05:52:09.903Z,1130.62
2023-05-05T05:53:10.007Z,1198.12
2023-05-05T05:54:10.184Z,1231.88
2023-05-05T05:55:10.360Z,1248.75
2023-05-05T05:56:10.568Z,1276.88
2023-05-05T05:57:10.712Z,1293.75
2023-05-05T05:58:10.909Z,1338.75
2023-05-05T05:59:11.071Z,1383.75
2023-05-05T06:00:11.366Z,1046.25
2023-05-05T06:01:11.395Z,669.38
2023-05-05T06:02:11.582Z,714.38
2023-05-05T06:03:11.818Z,680.62
2023-05-05T06:04:11.948Z,669.38
2023-05-05T06:05:12.109Z,703.12
2023-05-05T06:06:12.281Z,680.62
2023-05-05T06:07:12.436Z,635.62
2023-05-05T06:08:12.622Z,675.00
2023-05-05T06:09:12.771Z,618.75
2023-05-05T06:10:26.687Z,742.50
2023-05-05T06:11:14.131Z,641.25
2023-05-05T06:12:13.294Z,556.88
2023-05-05T06:13:13.514Z,568.12
2023-05-05T06:14:13.645Z,585.00
2023-05-05T06:15:13.818Z,607.50
2023-05-05T06:16:13.978Z,495.00
2023-05-05T06:17:14.156Z,483.75
2023-05-05T06:18:14.364Z,500.62
2023-05-05T06:19:14.504Z,517.50
2023-05-05T06:20:14.672Z,613.12
2023-05-05T06:21:14.846Z,652.50
2023-05-05T06:22:15.031Z,641.25
2023-05-05T06:23:15.211Z,916.88
2023-05-05T06:24:15.415Z,866.25
2023-05-05T06:25:15.576Z,691.88
2023-05-05T06:26:15.720Z,1130.62
2023-05-05T06:27:15.912Z,883.12
2023-05-05T06:28:16.066Z,984.38
2023-05-05T06:29:16.284Z,956.25
2023-05-05T06:30:16.457Z,1186.88
2023-05-05T06:31:16.638Z,1260.00
2023-05-05T06:32:16.791Z,1305.00
2023-05-05T06:33:16.985Z,1192.50
2023-05-05T06:34:17.134Z,1170.00
2023-05-05T06:35:17.298Z,855.00
2023-05-05T06:36:17.534Z,843.75
2023-05-05T06:37:17.683Z,916.88
2023-05-05T06:38:17.876Z,888.75
2023-05-05T06:39:18.016Z,900.00
2023-05-05T06:40:18.209Z,815.62
2023-05-05T06:41:18.400Z,753.75
2023-05-05T06:42:18.536Z,1068.75
2023-05-05T06:43:18.714Z,1158.75
2023-05-05T06:44:18.878Z,1361.25
2023-05-05T06:45:19.063Z,1293.75
2023-05-05T06:46:19.251Z,1310.62
2023-05-05T06:47:19.398Z,1130.62
2023-05-05T06:48:19.575Z,1310.62
2023-05-05T06:49:19.742Z,1186.88
2023-05-05T06:50:19.931Z,1333.12
2023-05-05T06:51:20.083Z,1057.50
2023-05-05T06:52:20.265Z,911.25
2023-05-05T06:53:20.402Z,1231.88
2023-05-05T06:54:20.583Z,1406.25
2023-05-05T06:55:20.776Z,1395.00
2023-05-05T06:56:20.916Z,1501.88
2023-05-05T06:57:21.132Z,1597.50
2023-05-05T06:58:21.244Z,1614.38
2023-05-05T06:59:21.417Z,1648.12
2023-05-05T07:00:21.598Z,1710.00
2023-05-05T07:01:21.808Z,1721.25
2023-05-05T07:02:22.561Z,1693.12
2023-05-05T07:03:22.154Z,1642.50
2023-05-05T07:04:22.265Z,1721.25
2023-05-05T07:05:22.419Z,1704.38
2023-05-05T07:06:22.623Z,1693.12
2023-05-05T07:07:22.799Z,1777.50
2023-05-05T07:08:22.951Z,1665.00
2023-05-05T07:09:23.130Z,2098.12
2023-05-05T07:10:23.262Z,2210.62
2023-05-05T07:11:23.462Z,2261.25
2023-05-05T07:12:23.622Z,2176.88
2023-05-05T07:13:23.776Z,2109.38
2023-05-05T07:14:24.566Z,2103.75
2023-05-05T07:15:29.378Z,2143.12
2023-05-05T07:16:25.344Z,2171.25
2023-05-05T07:17:24.511Z,2182.50
2023-05-05T07:18:24.668Z,2188.12
2023-05-05T07:19:24.873Z,2165.62
2023-05-05T07:20:25.058Z,2182.50
2023-05-05T07:21:25.226Z,2238.75
2023-05-05T07:22:25.380Z,2278.12
2023-05-05T07:23:25.549Z,2261.25
2023-05-05T07:24:25.703Z,2238.75
2023-05-05T07:25:25.880Z,2300.62
2023-05-05T07:26:26.050Z,2295.00
2023-05-05T07:27:26.237Z,2278.12
2023-05-05T07:28:26.381Z,2250.00
2023-05-05T07:29:26.546Z,2176.88
2023-05-05T07:30:26.785Z,2295.00
2023-05-05T07:31:26.966Z,2278.12
2023-05-05T07:32:27.115Z,2266.88
2023-05-05T07:33:27.222Z,2250.00
2023-05-05T07:34:27.459Z,2199.38
2023-05-05T07:35:27.616Z,2120.62
2023-05-05T07:36:27.831Z,2070.00
2023-05-05T07:37:27.926Z,2092.50
2023-05-05T07:38:28.101Z,2131.88
2023-05-05T07:39:28.295Z,2120.62
2023-05-05T07:40:28.461Z,2188.12
2023-05-05T07:41:28.615Z,2210.62
2023-05-05T07:42:28.787Z,2238.75
2023-05-05T07:43:28.938Z,2216.25
2023-05-05T07:44:29.155Z,2300.62
2023-05-05T07:45:29.315Z,2368.12
2023-05-05T07:46:29.671Z,2418.75
2023-05-05T07:47:29.705Z,2446.88
2023-05-05T07:48:29.841Z,2424.38
2023-05-05T07:49:30.032Z,2373.75
2023-05-05T07:50:30.271Z,2373.75
2023-05-05T07:51:30.844Z,2328.75
2023-05-05T07:52:45.237Z,2340.00
2023-05-05T07:53:31.731Z,2311.88
2023-05-05T07:54:30.967Z,2311.88
2023-05-05T07:55:31.144Z,2334.38
2023-05-05T07:56:31.280Z,2385.00
2023-05-05T07:57:31.450Z,2418.75
2023-05-05T07:58:31.675Z,2385.00
2023-05-05T07:59:31.822Z,2283.75
2023-05-05T08:00:31.968Z,2210.62
2023-05-05T08:01:32.131Z,2205.00
2023-05-05T08:02:32.326Z,2182.50
2023-05-05T08:03:32.577Z,2227.50
2023-05-05T08:04:32.684Z,2221.88
2023-05-05T08:05:32.822Z,2261.25
2023-05-05T08:06:33.000Z,2255.62
2023-05-05T08:07:33.182Z,2250.00
2023-05-05T08:08:33.392Z,2233.12
2023-05-05T08:09:33.589Z,2216.25
2023-05-05T08:10:33.768Z,2328.75
2023-05-05T08:11:33.915Z,2396.25
2023-05-05T08:12:34.139Z,2407.50
2023-05-05T08:13:34.271Z,2463.75
2023-05-05T08:14:34.417Z,2491.88
2023-05-05T08:15:34.608Z,2463.75
2023-05-05T08:16:34.861Z,2435.62
2023-05-05T08:17:34.987Z,2542.50
2023-05-05T08:18:35.135Z,2604.38
2023-05-05T08:19:35.299Z,2598.75
2023-05-05T08:20:35.500Z,2688.75
2023-05-05T08:21:35.656Z,2655.00
2023-05-05T08:22:35.834Z,2677.50
2023-05-05T08:23:35.983Z,2660.62
2023-05-05T08:24:36.166Z,2581.88
2023-05-05T08:25:36.320Z,2486.25
2023-05-05T08:26:36.502Z,2486.25
2023-05-05T08:27:36.676Z,2469.38
2023-05-05T08:28:36.853Z,2520.00
2023-05-05T08:29:36.997Z,2593.12
2023-05-05T08:30:37.194Z,2638.12
2023-05-05T08:31:37.419Z,2610.00
2023-05-05T08:32:37.573Z,2604.38
2023-05-05T08:33:37.692Z,2480.62
2023-05-05T08:34:37.872Z,2210.62
2023-05-05T08:35:38.034Z,1833.75
2023-05-05T08:36:38.230Z,1659.38
2023-05-05T08:37:38.400Z,1563.75
2023-05-05T08:38:38.586Z,1327.50
2023-05-05T08:39:38.718Z,1175.62
2023-05-05T08:40:38.888Z,1141.88
2023-05-05T08:41:39.056Z,1130.62
2023-05-05T08:42:39.719Z,1141.88
2023-05-05T08:43:39.389Z,1164.38
2023-05-05T08:44:39.575Z,1170.00
2023-05-05T08:45:39.756Z,1164.38
2023-05-05T08:46:39.983Z,1147.50
2023-05-05T08:47:40.234Z,1147.50
2023-05-05T08:48:40.238Z,1181.25
2023-05-05T08:49:40.404Z,1344.38
2023-05-05T08:50:40.582Z,1625.62
2023-05-05T08:51:40.745Z,1755.00
2023-05-05T08:52:40.938Z,1923.75
2023-05-05T08:53:41.110Z,2025.00
2023-05-05T08:54:41.277Z,2103.75
2023-05-05T08:55:41.453Z,2221.88
2023-05-05T08:56:41.624Z,2598.75
2023-05-05T08:57:41.784Z,2930.62
2023-05-05T08:58:41.973Z,2885.62
2023-05-05T08:59:42.179Z,2958.75
2023-05-05T09:00:42.350Z,2863.12
2023-05-05T09:01:42.491Z,2806.88
2023-05-05T09:02:42.752Z,2823.75
2023-05-05T09:03:43.635Z,2750.62
2023-05-05T09:04:43.042Z,2767.50
2023-05-05T09:05:43.206Z,2784.38
2023-05-05T09:06:43.361Z,2784.38
2023-05-05T09:07:43.552Z,2711.25
2023-05-05T09:08:43.740Z,2531.25
2023-05-05T09:09:43.935Z,2469.38
2023-05-05T09:10:44.100Z,2480.62
2023-05-05T09:11:44.274Z,2328.75
2023-05-05T09:12:44.483Z,2058.75
2023-05-05T09:13:44.600Z,2188.12
2023-05-05T09:14:44.798Z,2368.12
2023-05-05T09:15:44.951Z,2441.25
2023-05-05T09:16:45.191Z,2300.62
2023-05-05T09:17:45.347Z,2407.50
2023-05-05T09:18:45.535Z,2452.50
2023-05-05T09:19:45.709Z,2379.38
2023-05-05T09:20:45.853Z,2430.00
2023-05-05T09:21:46.040Z,2525.62
2023-05-05T09:22:46.233Z,2688.75
2023-05-05T09:23:46.452Z,2840.62
2023-05-05T09:24:46.597Z,2503.12
2023-05-05T09:25:46.783Z,2688.75
2023-05-05T09:26:46.950Z,2671.88
2023-05-05T09:27:47.161Z,2790.00
2023-05-05T09:28:47.304Z,3279.38
2023-05-05T09:29:47.461Z,3487.50
2023-05-05T09:30:47.704Z,3774.38
2023-05-05T09:31:47.838Z,3301.88
2023-05-05T09:32:48.060Z,3065.62
2023-05-05T09:33:48.208Z,2806.88
2023-05-05T09:34:48.387Z,2626.88
2023-05-05T09:35:48.535Z,2846.25
2023-05-05T09:36:48.712Z,2638.12
2023-05-05T09:37:48.925Z,2941.88
2023-05-05T09:38:49.066Z,3099.38
2023-05-05T09:39:49.224Z,3054.38
2023-05-05T09:40:49.393Z,2407.50
2023-05-05T09:41:49.571Z,2756.25
2023-05-05T09:42:49.772Z,2424.38
2023-05-05T09:43:49.945Z,2745.00
2023-05-05T09:44:50.095Z,2975.62
2023-05-05T09:45:50.292Z,2745.00
2023-05-05T09:46:50.779Z,3414.38
2023-05-05T09:47:50.715Z,3543.75
2023-05-05T09:48:50.860Z,3566.25
2023-05-05T09:49:50.987Z,3673.12
2023-05-05T09:50:51.197Z,2806.88
2023-05-05T09:51:51.375Z,2851.88
2023-05-05T09:52:51.531Z,1918.12
2023-05-05T09:53:51.718Z,2418.75
2023-05-05T09:54:51.888Z,3228.75
2023-05-05T09:55:52.036Z,2452.50
2023-05-05T09:56:52.206Z,3594.38
2023-05-05T09:57:52.398Z,4156.88
2023-05-05T09:58:52.572Z,3931.88
2023-05-05T09:59:52.749Z,2587.50
2023-05-05T10:00:52.921Z,2801.25
2023-05-05T10:01:53.118Z,2655.00
2023-05-05T10:02:53.310Z,2576.25
2023-05-05T10:03:53.421Z,2688.75
2023-05-05T10:04:53.631Z,2250.00
2023-05-05T10:05:53.803Z,1878.75
2023-05-05T10:06:53.951Z,2261.25
2023-05-05T10:07:54.106Z,1861.88
2023-05-05T10:08:54.306Z,2362.50
2023-05-05T10:09:54.454Z,2334.38
2023-05-05T10:10:54.646Z,2311.88
2023-05-05T10:11:54.824Z,2340.00
2023-05-05T10:12:54.987Z,2480.62
2023-05-05T10:13:55.147Z,2615.62
2023-05-05T10:14:55.301Z,2565.00
2023-05-05T10:15:55.611Z,1861.88
2023-05-05T10:16:55.699Z,1051.88
2023-05-05T10:18:07.079Z,843.75
2023-05-05T10:18:57.033Z,765.00
2023-05-05T10:19:56.228Z,725.62
2023-05-05T10:20:56.413Z,691.88
2023-05-05T10:21:56.582Z,663.75
2023-05-05T10:22:56.754Z,641.25
2023-05-05T10:23:56.917Z,630.00
2023-05-05T10:24:57.098Z,624.38
2023-05-05T10:25:57.217Z,624.38
2023-05-05T10:26:57.378Z,618.75
2023-05-05T10:27:57.580Z,618.75
2023-05-05T10:28:57.728Z,613.12
2023-05-05T10:29:57.933Z,607.50
2023-05-05T10:30:58.051Z,596.25
2023-05-05T10:31:58.309Z,585.00
2023-05-05T10:33:18.245Z,573.75
2023-05-05T10:33:59.774Z,579.38
2023-05-05T10:34:58.758Z,579.38
2023-05-05T10:35:58.919Z,579.38
2023-05-05T10:36:59.095Z,573.75
2023-05-05T10:37:59.250Z,568.12
2023-05-05T10:38:59.420Z,562.50
2023-05-05T10:39:59.611Z,556.88
2023-05-05T10:40:59.758Z,562.50
2023-05-05T10:41:59.956Z,562.50
2023-05-05T10:43:00.136Z,562.50
2023-05-05T10:44:02.859Z,562.50
2023-05-05T10:45:00.494Z,556.88
2023-05-05T10:46:00.791Z,562.50
2023-05-05T10:47:00.810Z,579.38
2023-05-05T10:48:00.997Z,579.38
2023-05-05T10:49:01.254Z,556.88
2023-05-05T10:50:01.314Z,573.75
2023-05-05T10:51:01.462Z,562.50
2023-05-05T10:52:01.648Z,506.25
2023-05-05T10:53:01.813Z,545.62
2023-05-05T10:54:02.061Z,635.62
2023-05-05T10:55:02.374Z,714.38
2023-05-05T10:56:02.350Z,759.38
2023-05-05T10:57:02.524Z,742.50
2023-05-05T10:58:02.720Z,720.00
2023-05-05T10:59:02.883Z,680.62
2023-05-05T11:00:03.093Z,585.00
2023-05-05T11:01:03.257Z,562.50
2023-05-05T11:02:03.450Z,579.38
2023-05-05T11:03:03.784Z,590.62
2023-05-05T11:04:03.782Z,646.88
2023-05-05T11:05:03.932Z,675.00
2023-05-05T11:06:04.112Z,641.25
2023-05-05T11:07:04.256Z,590.62
2023-05-05T11:08:04.447Z,551.25
2023-05-05T11:09:04.603Z,545.62
2023-05-05T11:10:04.804Z,568.12
2023-05-05T11:11:04.960Z,624.38
2023-05-05T11:12:05.146Z,641.25
2023-05-05T11:13:05.337Z,658.12
2023-05-05T11:14:05.492Z,680.62
2023-05-05T11:15:05.674Z,714.38
2023-05-05T11:16:05.861Z,748.12
2023-05-05T11:17:06.029Z,770.62
2023-05-05T11:18:07.989Z,787.50
2023-05-05T11:19:06.350Z,793.12
2023-05-05T11:20:06.724Z,798.75
2023-05-05T11:21:06.689Z,798.75
2023-05-05T11:22:06.864Z,804.38
2023-05-05T11:23:07.179Z,798.75
2023-05-05T11:24:07.233Z,815.62
2023-05-05T11:25:07.395Z,832.50
2023-05-05T11:26:07.619Z,843.75
2023-05-05T11:27:07.784Z,843.75
2023-05-05T11:28:07.937Z,804.38
2023-05-05T11:29:08.111Z,776.25
2023-05-05T11:30:08.451Z,770.62
2023-05-05T11:31:08.457Z,781.88
2023-05-05T11:32:08.614Z,793.12
2023-05-05T11:33:08.808Z,776.25
2023-05-05T11:34:08.969Z,759.38
2023-05-05T11:35:09.198Z,736.88
2023-05-05T11:36:09.373Z,714.38
2023-05-05T11:37:09.541Z,686.25
2023-05-05T11:38:09.719Z,680.62
2023-05-05T11:39:09.900Z,708.75
2023-05-05T11:40:10.298Z,765.00
2023-05-05T11:41:10.246Z,804.38
2023-05-05T11:42:11.064Z,821.25
2023-05-05T11:43:10.622Z,838.12
2023-05-05T11:44:10.830Z,849.38
2023-05-05T11:45:10.953Z,860.62
2023-05-05T11:46:11.223Z,849.38
2023-05-05T11:47:11.311Z,815.62
2023-05-05T11:48:11.546Z,798.75
2023-05-05T11:49:11.673Z,765.00
2023-05-05T11:50:11.894Z,753.75
2023-05-05T11:51:11.999Z,748.12
2023-05-05T11:52:12.178Z,736.88
2023-05-05T11:53:12.336Z,720.00
2023-05-05T11:54:12.513Z,663.75
2023-05-05T11:55:12.674Z,641.25
2023-05-05T11:56:12.832Z,641.25
2023-05-05T11:57:13.017Z,635.62
2023-05-05T11:58:13.166Z,613.12
2023-05-05T11:59:13.353Z,590.62
2023-05-05T12:00:13.561Z,568.12
2023-05-05T12:01:13.725Z,545.62
2023-05-05T12:02:13.983Z,545.62
2023-05-05T12:03:14.224Z,511.88
2023-05-05T12:04:14.508Z,478.12
2023-05-05T12:05:14.616Z,461.25
2023-05-05T12:06:14.617Z,489.38
2023-05-05T12:07:14.831Z,483.75
2023-05-05T12:08:14.998Z,495.00
2023-05-05T12:09:15.167Z,489.38
2023-05-05T12:10:15.318Z,489.38
2023-05-05T12:11:15.502Z,483.75
2023-05-05T12:12:15.692Z,483.75
2023-05-05T12:13:15.876Z,478.12
2023-05-05T12:14:16.039Z,472.50
2023-05-05T12:15:16.208Z,455.62
2023-05-05T12:16:16.464Z,444.38
2023-05-05T12:17:16.580Z,444.38
2023-05-05T12:18:16.718Z,438.75
2023-05-05T12:19:16.907Z,444.38
2023-05-05T12:20:17.064Z,450.00
2023-05-05T12:21:17.219Z,450.00
2023-05-05T12:22:17.413Z,438.75
2023-05-05T12:23:17.587Z,438.75
2023-05-05T12:24:17.746Z,416.25
2023-05-05T12:25:17.911Z,410.62
2023-05-05T12:26:18.057Z,405.00
2023-05-05T12:27:18.242Z,410.62
2023-05-05T12:28:18.471Z,405.00
2023-05-05T12:29:18.581Z,393.75
2023-05-05T12:30:18.899Z,382.50
2023-05-05T12:31:18.982Z,388.12
2023-05-05T12:32:19.154Z,388.12
2023-05-05T12:33:19.333Z,393.75
2023-05-05T12:34:19.521Z,405.00
2023-05-05T12:35:19.681Z,405.00
2023-05-05T12:36:19.826Z,410.62
2023-05-05T12:37:20.024Z,421.88